sensor_id;sensor_type;location;lat;lon;timestamp;pressure;altitude;pressure_sealevel;temperature;humidity
72024;BME280;59889;50.700;5.440;2023-09-07T00:00:29;100336.52;;;29.69;30.23
72024;BME280;59889;50.700;5.440;2023-09-07T00:02:54;100336.05;;;29.99;30.19
72024;BME280;59889;50.700;5.440;2023-09-07T00:05:20;100333.97;;;29.69;30.26
72024;BME280;59889;50.700;5.440;2023-09-07T00:07:46;100334.99;;;29.97;30.21
72024;BME280;59889;50.700;5.440;2023-09-07T00:10:12;100334.46;;;29.75;30.18
72024;BME280;59889;50.700;5.440;2023-09-07T00:12:38;100331.34;;;30.20;30.18
72024;BME280;59889;50.700;5.440;2023-09-07T00:15:04;100329.85;;;29.83;30.09
72024;BME280;59889;50.700;5.440;2023-09-07T00:17:29;100328.60;;;29.76;30.14
72024;BME280;59889;50.700;5.440;2023-09-07T00:19:55;100326.41;;;29.73;30.17
72024;BME280;59889;50.700;5.440;2023-09-07T00:22:21;100326.37;;;29.68;30.22
72024;BME280;59889;50.700;5.440;2023-09-07T00:24:47;100327.22;;;30.18;30.20
72024;BME280;59889;50.700;5.440;2023-09-07T00:27:12;100326.58;;;29.93;30.20
72024;BME280;59889;50.700;5.440;2023-09-07T00:29:38;100326.16;;;29.95;30.17
72024;BME280;59889;50.700;5.440;2023-09-07T00:32:05;100325.01;;;29.79;30.07
72024;BME280;59889;50.700;5.440;2023-09-07T00:34:30;100324.41;;;30.13;30.21
72024;BME280;59889;50.700;5.440;2023-09-07T00:36:56;100321.38;;;29.80;30.05
72024;BME280;59889;50.700;5.440;2023-09-07T00:39:21;100326.27;;;29.83;30.02
72024;BME280;59889;50.700;5.440;2023-09-07T00:41:47;100324.66;;;30.19;30.14
72024;BME280;59889;50.700;5.440;2023-09-07T00:44:13;100325.64;;;29.88;30.21
72024;BME280;59889;50.700;5.440;2023-09-07T00:46:39;100326.33;;;29.86;29.97
72024;BME280;59889;50.700;5.440;2023-09-07T00:49:05;100325.55;;;29.70;30.11
72024;BME280;59889;50.700;5.440;2023-09-07T00:51:30;100324.09;;;30.18;30.11
72024;BME280;59889;50.700;5.440;2023-09-07T00:53:56;100323.78;;;29.75;30.08
72024;BME280;59889;50.700;5.440;2023-09-07T00:56:22;100322.30;;;30.04;30.22
72024;BME280;59889;50.700;5.440;2023-09-07T00:58:48;100320.90;;;29.51;30.29
72024;BME280;59889;50.700;5.440;2023-09-07T01:01:14;100318.60;;;29.41;30.40
72024;BME280;59889;50.700;5.440;2023-09-07T01:03:39;100317.97;;;29.64;30.13
72024;BME280;59889;50.700;5.440;2023-09-07T01:06:12;100317.38;;;29.97;30.04
72024;BME280;59889;50.700;5.440;2023-09-07T01:08:35;100317.35;;;29.52;30.25
72024;BME280;59889;50.700;5.440;2023-09-07T01:10:57;100317.66;;;29.92;30.08
72024;BME280;59889;50.700;5.440;2023-09-07T01:13:23;100314.75;;;29.79;30.19
72024;BME280;59889;50.700;5.440;2023-09-07T01:15:49;100312.82;;;29.36;30.38
72024;BME280;59889;50.700;5.440;2023-09-07T01:18:15;100309.87;;;29.57;30.19
72024;BME280;59889;50.700;5.440;2023-09-07T01:20:41;100310.27;;;29.86;30.11
72024;BME280;59889;50.700;5.440;2023-09-07T01:23:07;100307.88;;;30.18;30.03
72024;BME280;59889;50.700;5.440;2023-09-07T01:25:32;100309.84;;;29.65;30.07
72024;BME280;59889;50.700;5.440;2023-09-07T01:27:58;100309.34;;;29.82;30.39
72024;BME280;59889;50.700;5.440;2023-09-07T01:30:26;100311.79;;;29.83;30.12
72024;BME280;59889;50.700;5.440;2023-09-07T01:32:49;100312.02;;;29.63;30.06
72024;BME280;59889;50.700;5.440;2023-09-07T01:35:16;100309.81;;;29.63;30.32
72024;BME280;59889;50.700;5.440;2023-09-07T01:37:41;100308.70;;;29.50;30.19
72024;BME280;59889;50.700;5.440;2023-09-07T01:40:07;100308.19;;;29.47;30.20
72024;BME280;59889;50.700;5.440;2023-09-07T01:42:32;100306.02;;;29.64;30.27
72024;BME280;59889;50.700;5.440;2023-09-07T01:44:58;100303.11;;;29.69;30.20
72024;BME280;59889;50.700;5.440;2023-09-07T01:47:24;100301.56;;;29.91;30.22
72024;BME280;59889;50.700;5.440;2023-09-07T01:49:50;100296.56;;;29.57;30.05
72024;BME280;59889;50.700;5.440;2023-09-07T01:52:16;100295.38;;;29.36;30.24
72024;BME280;59889;50.700;5.440;2023-09-07T01:54:41;100293.36;;;29.56;30.29
72024;BME280;59889;50.700;5.440;2023-09-07T01:57:07;100292.61;;;29.54;30.05
72024;BME280;59889;50.700;5.440;2023-09-07T01:59:33;100293.76;;;29.59;29.99
72024;BME280;59889;50.700;5.440;2023-09-07T02:01:59;100294.30;;;29.32;30.23
72024;BME280;59889;50.700;5.440;2023-09-07T02:04:25;100294.61;;;29.67;30.13
72024;BME280;59889;50.700;5.440;2023-09-07T02:06:50;100291.27;;;29.45;30.12
72024;BME280;59889;50.700;5.440;2023-09-07T02:09:16;100288.93;;;29.98;30.06
72024;BME280;59889;50.700;5.440;2023-09-07T02:11:42;100284.63;;;29.69;30.10
72024;BME280;59889;50.700;5.440;2023-09-07T02:14:08;100285.09;;;29.90;30.11
72024;BME280;59889;50.700;5.440;2023-09-07T02:16:33;100282.36;;;29.98;30.04
72024;BME280;59889;50.700;5.440;2023-09-07T02:19:01;100281.11;;;29.47;30.08
72024;BME280;59889;50.700;5.440;2023-09-07T02:21:25;100281.69;;;29.51;29.99
72024;BME280;59889;50.700;5.440;2023-09-07T02:23:51;100281.06;;;29.56;30.19
72024;BME280;59889;50.700;5.440;2023-09-07T02:26:16;100282.47;;;29.53;29.96
72024;BME280;59889;50.700;5.440;2023-09-07T02:28:42;100287.01;;;29.62;30.12
72024;BME280;59889;50.700;5.440;2023-09-07T02:31:08;100283.91;;;30.05;29.92
72024;BME280;59889;50.700;5.440;2023-09-07T02:33:34;100283.85;;;29.22;30.25
72024;BME280;59889;50.700;5.440;2023-09-07T02:36:00;100283.27;;;29.52;29.94
72024;BME280;59889;50.700;5.440;2023-09-07T02:38:26;100280.16;;;29.95;29.97
72024;BME280;59889;50.700;5.440;2023-09-07T02:40:52;100275.15;;;29.30;30.14
72024;BME280;59889;50.700;5.440;2023-09-07T02:43:17;100275.45;;;29.86;30.08
72024;BME280;59889;50.700;5.440;2023-09-07T02:45:43;100272.75;;;29.80;30.08
72024;BME280;59889;50.700;5.440;2023-09-07T02:48:09;100272.52;;;29.63;30.04
72024;BME280;59889;50.700;5.440;2023-09-07T02:50:35;100271.66;;;29.37;30.10
72024;BME280;59889;50.700;5.440;2023-09-07T02:53:01;100273.04;;;29.87;30.02
72024;BME280;59889;50.700;5.440;2023-09-07T02:55:26;100272.37;;;29.31;30.11
72024;BME280;59889;50.700;5.440;2023-09-07T02:57:52;100270.61;;;29.28;30.12
72024;BME280;59889;50.700;5.440;2023-09-07T03:00:18;100268.30;;;29.78;30.10
72024;BME280;59889;50.700;5.440;2023-09-07T03:02:44;100267.09;;;29.62;30.04
72024;BME280;59889;50.700;5.440;2023-09-07T03:05:10;100264.44;;;29.70;29.92
72024;BME280;59889;50.700;5.440;2023-09-07T03:07:36;100261.81;;;29.72;29.87
72024;BME280;59889;50.700;5.440;2023-09-07T03:10:01;100262.54;;;29.63;30.00
72024;BME280;59889;50.700;5.440;2023-09-07T03:12:27;100264.23;;;29.82;30.03
72024;BME280;59889;50.700;5.440;2023-09-07T03:14:53;100262.89;;;29.35;30.00
72024;BME280;59889;50.700;5.440;2023-09-07T03:17:19;100260.40;;;29.85;29.98
72024;BME280;59889;50.700;5.440;2023-09-07T03:19:45;100259.51;;;29.87;29.94
72024;BME280;59889;50.700;5.440;2023-09-07T03:22:10;100261.14;;;29.72;30.08
72024;BME280;59889;50.700;5.440;2023-09-07T03:24:36;100260.01;;;29.91;29.90
72024;BME280;59889;50.700;5.440;2023-09-07T03:27:02;100258.63;;;29.40;29.91
72024;BME280;59889;50.700;5.440;2023-09-07T03:29:29;100257.05;;;29.45;29.85
72024;BME280;59889;50.700;5.440;2023-09-07T03:31:54;100259.80;;;29.60;30.17
72024;BME280;59889;50.700;5.440;2023-09-07T03:34:20;100257.49;;;29.91;29.85
72024;BME280;59889;50.700;5.440;2023-09-07T03:36:45;100262.09;;;29.73;30.02
72024;BME280;59889;50.700;5.440;2023-09-07T03:39:11;100262.78;;;29.30;29.96
72024;BME280;59889;50.700;5.440;2023-09-07T03:41:37;100262.35;;;29.72;30.02
72024;BME280;59889;50.700;5.440;2023-09-07T03:44:03;100260.25;;;29.40;29.85
72024;BME280;59889;50.700;5.440;2023-09-07T03:46:29;100259.08;;;29.85;29.86
72024;BME280;59889;50.700;5.440;2023-09-07T03:48:55;100262.20;;;29.70;30.02
72024;BME280;59889;50.700;5.440;2023-09-07T03:51:20;100264.99;;;29.41;30.07
72024;BME280;59889;50.700;5.440;2023-09-07T03:53:47;100263.42;;;29.59;30.13
72024;BME280;59889;50.700;5.440;2023-09-07T03:56:12;100263.10;;;29.66;30.02
72024;BME280;59889;50.700;5.440;2023-09-07T03:58:38;100259.44;;;29.81;29.85
72024;BME280;59889;50.700;5.440;2023-09-07T04:01:04;100262.89;;;29.62;29.81
72024;BME280;59889;50.700;5.440;2023-09-07T04:03:29;100263.44;;;29.79;29.87
72024;BME280;59889;50.700;5.440;2023-09-07T04:05:55;100262.53;;;29.22;29.92
72024;BME280;59889;50.700;5.440;2023-09-07T04:08:21;100263.80;;;29.68;29.94
72024;BME280;59889;50.700;5.440;2023-09-07T04:10:47;100261.85;;;29.43;29.96
72024;BME280;59889;50.700;5.440;2023-09-07T04:13:13;100261.09;;;29.45;29.94
72024;BME280;59889;50.700;5.440;2023-09-07T04:15:41;100258.57;;;29.51;30.09
72024;BME280;59889;50.700;5.440;2023-09-07T04:18:04;100260.43;;;29.05;30.06
72024;BME280;59889;50.700;5.440;2023-09-07T04:20:30;100263.32;;;29.73;29.80
72024;BME280;59889;50.700;5.440;2023-09-07T04:22:56;100259.55;;;29.63;29.92
72024;BME280;59889;50.700;5.440;2023-09-07T04:25:22;100258.79;;;29.51;30.04
72024;BME280;59889;50.700;5.440;2023-09-07T04:27:48;100256.78;;;29.43;29.86
72024;BME280;59889;50.700;5.440;2023-09-07T04:30:14;100255.53;;;29.44;29.85
72024;BME280;59889;50.700;5.440;2023-09-07T04:32:39;100254.39;;;29.26;30.04
72024;BME280;59889;50.700;5.440;2023-09-07T04:35:06;100254.16;;;29.50;29.75
72024;BME280;59889;50.700;5.440;2023-09-07T04:37:31;100254.53;;;29.07;30.16
72024;BME280;59889;50.700;5.440;2023-09-07T04:39:56;100260.24;;;29.06;29.93
72024;BME280;59889;50.700;5.440;2023-09-07T04:42:22;100261.44;;;29.39;29.79
72024;BME280;59889;50.700;5.440;2023-09-07T04:44:48;100263.40;;;29.41;29.81
72024;BME280;59889;50.700;5.440;2023-09-07T04:47:14;100264.56;;;29.35;29.86
72024;BME280;59889;50.700;5.440;2023-09-07T04:49:39;100272.02;;;29.61;29.82
72024;BME280;59889;50.700;5.440;2023-09-07T04:52:05;100274.04;;;29.19;30.00
72024;BME280;59889;50.700;5.440;2023-09-07T04:54:31;100272.16;;;29.30;29.83
72024;BME280;59889;50.700;5.440;2023-09-07T04:56:57;100276.14;;;29.27;29.85
72024;BME280;59889;50.700;5.440;2023-09-07T04:59:23;100274.52;;;29.10;29.98
72024;BME280;59889;50.700;5.440;2023-09-07T05:01:49;100278.39;;;28.97;29.90
72024;BME280;59889;50.700;5.440;2023-09-07T05:04:14;100277.48;;;29.42;29.16
72024;BME280;59889;50.700;5.440;2023-09-07T05:06:40;100281.85;;;28.99;27.44
72024;BME280;59889;50.700;5.440;2023-09-07T05:09:06;100282.10;;;28.67;26.97
72024;BME280;59889;50.700;5.440;2023-09-07T05:11:32;100287.50;;;28.57;26.85
72024;BME280;59889;50.700;5.440;2023-09-07T05:13:57;100289.04;;;28.32;26.95
72024;BME280;59889;50.700;5.440;2023-09-07T05:16:23;100291.05;;;28.33;26.88
72024;BME280;59889;50.700;5.440;2023-09-07T05:18:49;100295.73;;;28.22;26.90
72024;BME280;59889;50.700;5.440;2023-09-07T05:21:15;100292.00;;;28.17;26.91
72024;BME280;59889;50.700;5.440;2023-09-07T05:23:41;100296.23;;;28.39;26.86
72024;BME280;59889;50.700;5.440;2023-09-07T05:26:06;100298.48;;;28.05;26.92
72024;BME280;59889;50.700;5.440;2023-09-07T05:28:32;100299.51;;;28.18;27.06
72024;BME280;59889;50.700;5.440;2023-09-07T05:30:58;100301.92;;;28.17;26.97
72024;BME280;59889;50.700;5.440;2023-09-07T05:33:24;100304.03;;;28.37;26.97
72024;BME280;59889;50.700;5.440;2023-09-07T05:35:50;100304.26;;;28.06;27.04
72024;BME280;59889;50.700;5.440;2023-09-07T05:38:16;100309.72;;;28.11;26.96
72024;BME280;59889;50.700;5.440;2023-09-07T05:40:43;100311.24;;;28.05;27.02
72024;BME280;59889;50.700;5.440;2023-09-07T05:43:08;100314.05;;;27.96;27.02
72024;BME280;59889;50.700;5.440;2023-09-07T05:45:35;100315.54;;;27.95;26.87
72024;BME280;59889;50.700;5.440;2023-09-07T05:47:59;100315.75;;;27.87;26.84
72024;BME280;59889;50.700;5.440;2023-09-07T05:50:25;100316.71;;;28.13;26.84
72024;BME280;59889;50.700;5.440;2023-09-07T05:52:50;100316.85;;;27.71;26.94
72024;BME280;59889;50.700;5.440;2023-09-07T05:55:16;100318.21;;;27.66;26.99
72024;BME280;59889;50.700;5.440;2023-09-07T05:57:42;100318.46;;;28.00;26.83
72024;BME280;59889;50.700;5.440;2023-09-07T06:00:09;100320.64;;;27.77;26.91
72024;BME280;59889;50.700;5.440;2023-09-07T06:02:34;100318.45;;;27.74;27.02
72024;BME280;59889;50.700;5.440;2023-09-07T06:04:59;100320.55;;;27.67;27.17
72024;BME280;59889;50.700;5.440;2023-09-07T06:07:26;100323.51;;;27.92;27.21
72024;BME280;59889;50.700;5.440;2023-09-07T06:09:51;100325.74;;;27.84;27.34
72024;BME280;59889;50.700;5.440;2023-09-07T06:12:16;100328.88;;;27.83;27.42
72024;BME280;59889;50.700;5.440;2023-09-07T06:14:42;100331.65;;;27.84;27.54
72024;BME280;59889;50.700;5.440;2023-09-07T06:17:08;100332.35;;;27.90;27.56
72024;BME280;59889;50.700;5.440;2023-09-07T06:19:34;100333.61;;;27.88;27.72
72024;BME280;59889;50.700;5.440;2023-09-07T06:21:59;100335.81;;;27.90;27.77
72024;BME280;59889;50.700;5.440;2023-09-07T06:24:25;100336.10;;;27.86;27.89
72024;BME280;59889;50.700;5.440;2023-09-07T06:26:51;100337.59;;;27.90;27.99
72024;BME280;59889;50.700;5.440;2023-09-07T06:29:17;100341.78;;;27.86;28.26
72024;BME280;59889;50.700;5.440;2023-09-07T06:31:43;100343.46;;;27.75;28.50
72024;BME280;59889;50.700;5.440;2023-09-07T06:34:09;100342.53;;;27.91;28.40
72024;BME280;59889;50.700;5.440;2023-09-07T06:36:35;100346.40;;;27.82;28.67
72024;BME280;59889;50.700;5.440;2023-09-07T06:39:00;100347.39;;;27.80;28.82
72024;BME280;59889;50.700;5.440;2023-09-07T06:41:27;100347.12;;;27.84;28.86
72024;BME280;59889;50.700;5.440;2023-09-07T06:43:52;100349.01;;;27.85;29.00
72024;BME280;59889;50.700;5.440;2023-09-07T06:46:18;100351.53;;;27.84;29.12
72024;BME280;59889;50.700;5.440;2023-09-07T06:48:44;100352.21;;;27.87;29.11
72024;BME280;59889;50.700;5.440;2023-09-07T06:51:09;100353.62;;;27.96;29.14
72024;BME280;59889;50.700;5.440;2023-09-07T06:53:34;100361.56;;;28.05;29.04
72024;BME280;59889;50.700;5.440;2023-09-07T06:56:01;100359.61;;;27.99;29.01
72024;BME280;59889;50.700;5.440;2023-09-07T06:58:26;100363.24;;;28.41;28.90
72024;BME280;59889;50.700;5.440;2023-09-07T07:00:52;100363.53;;;28.61;28.44
72024;BME280;59889;50.700;5.440;2023-09-07T07:03:18;100364.67;;;28.74;28.36
72024;BME280;59889;50.700;5.440;2023-09-07T07:05:43;100364.89;;;28.99;28.03
72024;BME280;59889;50.700;5.440;2023-09-07T07:08:09;100367.96;;;29.19;27.94
72024;BME280;59889;50.700;5.440;2023-09-07T07:10:35;100373.12;;;30.45;26.99
72024;BME280;59889;50.700;5.440;2023-09-07T07:13:00;100371.12;;;30.99;25.58
72024;BME280;59889;50.700;5.440;2023-09-07T07:15:26;100370.21;;;31.98;24.63
72024;BME280;59889;50.700;5.440;2023-09-07T07:17:51;100373.24;;;32.46;23.65
72024;BME280;59889;50.700;5.440;2023-09-07T07:20:17;100375.24;;;33.11;23.03
72024;BME280;59889;50.700;5.440;2023-09-07T07:22:43;100382.79;;;33.90;22.46
72024;BME280;59889;50.700;5.440;2023-09-07T07:25:10;100385.71;;;33.55;22.12
72024;BME280;59889;50.700;5.440;2023-09-07T07:27:34;100386.67;;;33.91;21.86
72024;BME280;59889;50.700;5.440;2023-09-07T07:30:00;100385.38;;;34.29;21.48
72024;BME280;59889;50.700;5.440;2023-09-07T07:32:26;100387.04;;;34.33;21.25
72024;BME280;59889;50.700;5.440;2023-09-07T07:34:51;100384.16;;;33.96;21.40
72024;BME280;59889;50.700;5.440;2023-09-07T07:37:17;100382.84;;;34.50;21.36
72024;BME280;59889;50.700;5.440;2023-09-07T07:39:43;100377.16;;;33.73;21.96
72024;BME280;59889;50.700;5.440;2023-09-07T07:42:09;100370.92;;;32.72;23.19
72024;BME280;59889;50.700;5.440;2023-09-07T07:44:35;100370.34;;;32.09;24.16
72024;BME280;59889;50.700;5.440;2023-09-07T07:47:01;100366.70;;;31.00;25.17
72024;BME280;59889;50.700;5.440;2023-09-07T07:49:26;100366.32;;;30.78;25.86
72024;BME280;59889;50.700;5.440;2023-09-07T07:51:52;100366.96;;;30.50;26.15
72024;BME280;59889;50.700;5.440;2023-09-07T07:54:18;100365.07;;;30.27;26.66
72024;BME280;59889;50.700;5.440;2023-09-07T07:56:44;100363.88;;;30.10;26.85
72024;BME280;59889;50.700;5.440;2023-09-07T07:59:09;100365.78;;;29.60;27.36
72024;BME280;59889;50.700;5.440;2023-09-07T08:01:35;100365.78;;;29.64;27.34
72024;BME280;59889;50.700;5.440;2023-09-07T08:04:01;100363.45;;;29.21;27.79
72024;BME280;59889;50.700;5.440;2023-09-07T08:06:27;100362.37;;;29.53;27.73
72024;BME280;59889;50.700;5.440;2023-09-07T08:08:53;100363.89;;;29.37;27.90
72024;BME280;59889;50.700;5.440;2023-09-07T08:11:18;100363.91;;;29.19;28.10
72024;BME280;59889;50.700;5.440;2023-09-07T08:13:44;100365.54;;;29.14;28.18
72024;BME280;59889;50.700;5.440;2023-09-07T08:16:10;100367.81;;;29.30;28.26
72024;BME280;59889;50.700;5.440;2023-09-07T08:18:36;100365.47;;;29.14;28.43
72024;BME280;59889;50.700;5.440;2023-09-07T08:21:01;100364.15;;;29.20;28.40
72024;BME280;59889;50.700;5.440;2023-09-07T08:23:28;100361.08;;;28.97;28.65
72024;BME280;59889;50.700;5.440;2023-09-07T08:25:53;100356.86;;;28.84;28.79
72024;BME280;59889;50.700;5.440;2023-09-07T08:28:19;100352.62;;;28.96;28.95
72024;BME280;59889;50.700;5.440;2023-09-07T08:30:45;100349.64;;;28.95;28.99
72024;BME280;59889;50.700;5.440;2023-09-07T08:33:11;100347.21;;;28.95;29.02
72024;BME280;59889;50.700;5.440;2023-09-07T08:35:36;100343.38;;;28.95;29.01
72024;BME280;59889;50.700;5.440;2023-09-07T08:38:03;100344.34;;;28.87;29.11
72024;BME280;59889;50.700;5.440;2023-09-07T08:40:28;100339.89;;;29.02;29.00
72024;BME280;59889;50.700;5.440;2023-09-07T08:42:54;100335.19;;;28.67;29.12
72024;BME280;59889;50.700;5.440;2023-09-07T08:45:21;100333.01;;;28.88;29.12
72024;BME280;59889;50.700;5.440;2023-09-07T08:47:46;100330.47;;;28.75;29.31
72024;BME280;59889;50.700;5.440;2023-09-07T08:50:12;100326.48;;;28.71;29.37
72024;BME280;59889;50.700;5.440;2023-09-07T08:52:37;100323.72;;;28.65;29.44
72024;BME280;59889;50.700;5.440;2023-09-07T08:55:04;100320.86;;;28.65;29.44
72024;BME280;59889;50.700;5.440;2023-09-07T08:57:30;100318.24;;;28.82;29.29
72024;BME280;59889;50.700;5.440;2023-09-07T08:59:54;100317.60;;;28.82;29.29
72024;BME280;59889;50.700;5.440;2023-09-07T09:02:20;100316.87;;;28.85;29.25
72024;BME280;59889;50.700;5.440;2023-09-07T09:04:46;100318.61;;;29.07;29.31
72024;BME280;59889;50.700;5.440;2023-09-07T09:07:12;100317.78;;;28.93;29.17
72024;BME280;59889;50.700;5.440;2023-09-07T09:09:37;100319.09;;;28.96;29.15
72024;BME280;59889;50.700;5.440;2023-09-07T09:12:07;100319.60;;;28.94;29.20
72024;BME280;59889;50.700;5.440;2023-09-07T09:14:30;100319.70;;;28.96;29.18
72024;BME280;59889;50.700;5.440;2023-09-07T09:16:55;100316.56;;;28.85;29.27
72024;BME280;59889;50.700;5.440;2023-09-07T09:19:31;100316.10;;;28.95;29.20
72024;BME280;59889;50.700;5.440;2023-09-07T09:21:47;100316.22;;;28.71;29.24
72024;BME280;59889;50.700;5.440;2023-09-07T09:24:12;100319.40;;;29.03;29.17
72024;BME280;59889;50.700;5.440;2023-09-07T09:26:38;100320.72;;;29.10;29.09
72024;BME280;59889;50.700;5.440;2023-09-07T09:29:04;100317.40;;;29.05;29.15
72024;BME280;59889;50.700;5.440;2023-09-07T09:31:30;100317.37;;;29.04;29.20
72024;BME280;59889;50.700;5.440;2023-09-07T09:33:56;100315.44;;;28.97;29.31
72024;BME280;59889;50.700;5.440;2023-09-07T09:36:22;100315.36;;;29.06;29.21
72024;BME280;59889;50.700;5.440;2023-09-07T09:38:48;100313.57;;;29.05;29.21
72024;BME280;59889;50.700;5.440;2023-09-07T09:41:14;100311.29;;;29.11;29.18
72024;BME280;59889;50.700;5.440;2023-09-07T09:43:39;100304.35;;;29.14;29.16
72024;BME280;59889;50.700;5.440;2023-09-07T09:46:06;100301.45;;;28.84;29.47
72024;BME280;59889;50.700;5.440;2023-09-07T09:48:32;100300.18;;;29.10;29.22
72024;BME280;59889;50.700;5.440;2023-09-07T09:50:57;100297.73;;;29.11;29.23
72024;BME280;59889;50.700;5.440;2023-09-07T09:53:23;100294.88;;;28.83;29.26
72024;BME280;59889;50.700;5.440;2023-09-07T09:55:49;100288.61;;;29.20;29.16
72024;BME280;59889;50.700;5.440;2023-09-07T09:58:15;100289.04;;;29.22;29.14
72024;BME280;59889;50.700;5.440;2023-09-07T10:00:41;100289.25;;;29.22;29.15
72024;BME280;59889;50.700;5.440;2023-09-07T10:03:09;100288.32;;;29.16;29.22
72024;BME280;59889;50.700;5.440;2023-09-07T10:05:32;100285.79;;;29.06;29.35
72024;BME280;59889;50.700;5.440;2023-09-07T10:08:01;100281.16;;;29.18;29.21
72024;BME280;59889;50.700;5.440;2023-09-07T10:10:23;100281.68;;;29.27;29.13
72024;BME280;59889;50.700;5.440;2023-09-07T10:12:52;100277.10;;;28.95;29.24
72024;BME280;59889;50.700;5.440;2023-09-07T10:15:21;100279.04;;;29.18;29.26
72024;BME280;59889;50.700;5.440;2023-09-07T10:17:41;100279.72;;;29.28;29.18
72024;BME280;59889;50.700;5.440;2023-09-07T10:20:08;100275.64;;;29.19;29.26
72024;BME280;59889;50.700;5.440;2023-09-07T10:22:32;100273.91;;;29.50;29.20
72024;BME280;59889;50.700;5.440;2023-09-07T10:24:59;100274.05;;;29.27;29.20
72024;BME280;59889;50.700;5.440;2023-09-07T10:27:24;100271.16;;;29.29;29.19
72024;BME280;59889;50.700;5.440;2023-09-07T10:29:51;100268.90;;;29.08;29.18
72024;BME280;59889;50.700;5.440;2023-09-07T10:32:16;100266.18;;;29.10;29.43
72024;BME280;59889;50.700;5.440;2023-09-07T10:34:42;100262.98;;;29.20;29.33
72024;BME280;59889;50.700;5.440;2023-09-07T10:37:07;100260.33;;;28.97;29.33
72024;BME280;59889;50.700;5.440;2023-09-07T10:39:34;100254.53;;;29.23;29.33
72024;BME280;59889;50.700;5.440;2023-09-07T10:41:59;100252.10;;;29.25;29.33
72024;BME280;59889;50.700;5.440;2023-09-07T10:44:25;100250.94;;;29.25;29.37
72024;BME280;59889;50.700;5.440;2023-09-07T10:46:51;100254.02;;;28.86;29.53
72024;BME280;59889;50.700;5.440;2023-09-07T10:49:18;100251.49;;;29.20;29.55
72024;BME280;59889;50.700;5.440;2023-09-07T10:51:45;100248.52;;;29.14;29.63
72024;BME280;59889;50.700;5.440;2023-09-07T10:54:15;100248.16;;;29.03;29.43
72024;BME280;59889;50.700;5.440;2023-09-07T10:56:34;100243.48;;;29.09;29.65
72024;BME280;59889;50.700;5.440;2023-09-07T10:59:02;100242.74;;;29.35;29.38
72024;BME280;59889;50.700;5.440;2023-09-07T11:01:26;100241.52;;;29.37;29.35
72024;BME280;59889;50.700;5.440;2023-09-07T11:03:52;100242.38;;;29.20;29.56
72024;BME280;59889;50.700;5.440;2023-09-07T11:06:19;100242.90;;;28.89;29.68
72024;BME280;59889;50.700;5.440;2023-09-07T11:08:43;100243.47;;;29.20;29.63
72024;BME280;59889;50.700;5.440;2023-09-07T11:11:09;100240.81;;;29.26;29.62
72024;BME280;59889;50.700;5.440;2023-09-07T11:13:35;100239.06;;;29.30;29.65
72024;BME280;59889;50.700;5.440;2023-09-07T11:16:00;100237.48;;;29.45;29.51
72024;BME280;59889;50.700;5.440;2023-09-07T11:18:26;100233.73;;;29.27;29.85
72024;BME280;59889;50.700;5.440;2023-09-07T11:20:53;100232.16;;;29.23;29.84
72024;BME280;59889;50.700;5.440;2023-09-07T11:23:19;100230.12;;;29.38;29.78
72024;BME280;59889;50.700;5.440;2023-09-07T11:25:45;100226.16;;;29.30;29.99
72024;BME280;59889;50.700;5.440;2023-09-07T11:28:10;100228.46;;;29.43;29.83
72024;BME280;59889;50.700;5.440;2023-09-07T11:30:35;100219.81;;;29.33;29.76
72024;BME280;59889;50.700;5.440;2023-09-07T11:33:02;100217.44;;;29.26;29.84
72024;BME280;59889;50.700;5.440;2023-09-07T11:35:27;100217.37;;;29.60;29.75
72024;BME280;59889;50.700;5.440;2023-09-07T11:37:54;100219.09;;;29.41;30.06
72024;BME280;59889;50.700;5.440;2023-09-07T11:40:19;100216.11;;;29.55;29.97
72024;BME280;59889;50.700;5.440;2023-09-07T11:42:45;100213.19;;;29.52;30.03
72024;BME280;59889;50.700;5.440;2023-09-07T11:45:11;100216.30;;;29.22;29.86
72024;BME280;59889;50.700;5.440;2023-09-07T11:47:36;100209.77;;;29.74;29.85
72024;BME280;59889;50.700;5.440;2023-09-07T11:50:02;100207.59;;;29.54;29.86
72024;BME280;59889;50.700;5.440;2023-09-07T11:52:28;100203.92;;;29.80;29.81
72024;BME280;59889;50.700;5.440;2023-09-07T11:54:54;100199.93;;;29.34;30.34
72024;BME280;59889;50.700;5.440;2023-09-07T11:57:20;100200.90;;;29.72;29.96
72024;BME280;59889;50.700;5.440;2023-09-07T11:59:45;100200.12;;;29.49;30.26
72024;BME280;59889;50.700;5.440;2023-09-07T12:02:11;100203.23;;;29.45;30.12
72024;BME280;59889;50.700;5.440;2023-09-07T12:04:36;100202.99;;;29.51;30.06
72024;BME280;59889;50.700;5.440;2023-09-07T12:07:02;100203.77;;;29.75;30.06
72024;BME280;59889;50.700;5.440;2023-09-07T12:09:28;100201.63;;;29.52;30.33
72024;BME280;59889;50.700;5.440;2023-09-07T12:11:53;100197.57;;;29.44;30.41
72024;BME280;59889;50.700;5.440;2023-09-07T12:14:19;100195.40;;;29.35;30.27
72024;BME280;59889;50.700;5.440;2023-09-07T12:16:45;100198.68;;;29.84;29.96
72024;BME280;59889;50.700;5.440;2023-09-07T12:19:11;100194.89;;;29.65;30.14
72024;BME280;59889;50.700;5.440;2023-09-07T12:21:36;100194.94;;;29.54;29.92
72024;BME280;59889;50.700;5.440;2023-09-07T12:24:03;100191.10;;;29.55;29.84
72024;BME280;59889;50.700;5.440;2023-09-07T12:26:28;100186.84;;;29.50;29.90
72024;BME280;59889;50.700;5.440;2023-09-07T12:28:54;100186.53;;;29.23;30.12
72024;BME280;59889;50.700;5.440;2023-09-07T12:31:20;100183.18;;;29.76;29.83
72024;BME280;59889;50.700;5.440;2023-09-07T12:33:46;100178.52;;;29.76;29.80
72024;BME280;59889;50.700;5.440;2023-09-07T12:36:12;100177.20;;;29.43;29.92
72024;BME280;59889;50.700;5.440;2023-09-07T12:38:37;100176.68;;;29.79;29.81
72024;BME280;59889;50.700;5.440;2023-09-07T12:41:03;100172.46;;;29.49;29.86